Time;durP1;ratioP1;P1;durP2;ratioP2;P2;SDS_P1;SDS_P2;PMS_P1;PMS_P2;Temp;Humidity;BMP_temperature;BMP_pressure;BME280_temperature;BME280_humidity;BME280_pressure;Samples;Min_cycle;Max_cycle;Signal;HPM_P1;HPM_P2
2024/03/04 00:02:09;;;;;;;24.53;23.53;;;20.90;52.60;;;;;;4982981;28;20440;-66
2024/03/04 00:04:37;;;;;;;24.77;23.60;;;20.90;52.70;;;;;;4985310;28;20471;-66
2024/03/04 00:07:05;;;;;;;25.90;24.70;;;20.90;52.70;;;;;;4983841;28;20471;-67
2024/03/04 00:09:31;;;;;;;25.10;23.90;;;20.90;52.70;;;;;;4981886;28;21023;-66
2024/03/04 00:11:58;;;;;;;26.30;25.00;;;20.90;52.80;;;;;;4982223;28;20444;-66
2024/03/04 00:14:25;;;;;;;25.07;24.00;;;20.90;52.80;;;;;;4984801;28;20669;-66
2024/03/04 00:16:51;;;;;;;24.93;23.83;;;20.90;52.90;;;;;;4985098;28;20443;-66
2024/03/04 00:19:18;;;;;;;25.87;24.67;;;20.90;52.80;;;;;;4973683;28;20933;-66
2024/03/04 00:21:47;;;;;;;24.40;23.40;;;20.80;52.80;;;;;;4981473;28;20503;-66
2024/03/04 00:24:14;;;;;;;25.00;23.90;;;20.90;52.90;;;;;;4984360;28;21059;-66
2024/03/04 00:26:41;;;;;;;25.27;24.17;;;20.80;52.80;;;;;;4978197;28;20436;-66
2024/03/04 00:29:08;;;;;;;25.10;24.00;;;20.80;52.90;;;;;;4983321;28;20852;-67
2024/03/04 00:31:35;;;;;;;25.37;24.27;;;20.80;52.90;;;;;;4984714;28;21129;-67
2024/03/04 00:34:04;;;;;;;24.57;23.50;;;20.80;52.90;;;;;;4983647;28;20843;-66
2024/03/04 00:36:32;;;;;;;25.40;24.40;;;20.80;53.00;;;;;;4981597;28;20528;-66
2024/03/04 00:39:00;;;;;;;25.30;24.20;;;20.80;53.00;;;;;;4981704;28;20503;-66
2024/03/04 00:41:28;;;;;;;25.63;24.43;;;20.80;53.00;;;;;;4986053;28;20447;-67
2024/03/04 00:43:55;;;;;;;25.57;24.47;;;20.80;53.10;;;;;;4981331;28;21056;-66
2024/03/04 00:46:23;;;;;;;25.07;24.07;;;20.80;53.10;;;;;;4984568;28;20447;-67
2024/03/04 00:48:49;;;;;;;24.90;23.90;;;20.80;53.10;;;;;;4984420;28;20863;-66
2024/03/04 00:51:17;;;;;;;26.13;24.93;;;20.70;53.10;;;;;;4976019;28;20954;-66
2024/03/04 00:53:45;;;;;;;28.83;27.43;;;20.70;53.10;;;;;;4984440;28;20936;-66
2024/03/04 00:56:13;;;;;;;24.90;23.83;;;20.70;53.10;;;;;;4982123;28;20447;-66
2024/03/04 00:58:41;;;;;;;24.60;23.60;;;20.70;53.20;;;;;;4980673;28;20439;-66
2024/03/04 01:01:08;;;;;;;25.30;24.13;;;20.70;53.20;;;;;;4982779;28;20498;-66
2024/03/04 01:03:35;;;;;;;24.57;23.57;;;20.70;53.30;;;;;;4984290;28;20451;-66
2024/03/04 01:06:02;;;;;;;24.60;23.40;;;20.70;53.30;;;;;;4983148;28;20443;-67
2024/03/04 01:08:31;;;;;;;25.10;24.00;;;20.70;53.30;;;;;;4979928;28;20444;-66
2024/03/04 01:10:58;;;;;;;24.80;23.70;;;20.70;53.30;;;;;;4981208;28;20451;-66
2024/03/04 01:13:26;;;;;;;24.90;23.77;;;20.60;53.30;;;;;;4984073;28;20812;-66
2024/03/04 01:15:53;;;;;;;25.20;24.10;;;20.60;53.30;;;;;;4984405;28;20561;-66
2024/03/04 01:18:20;;;;;;;24.60;23.60;;;20.60;53.30;;;;;;4980872;28;20443;-67
2024/03/04 01:20:47;;;;;;;24.70;23.60;;;20.60;53.30;;;;;;4980495;28;20499;-67
2024/03/04 01:23:14;;;;;;;24.27;23.17;;;20.60;53.40;;;;;;4982886;28;20448;-67
2024/03/04 01:25:41;;;;;;;24.80;23.60;;;20.70;53.50;;;;;;4984016;28;20525;-67
2024/03/04 01:28:08;;;;;;;25.10;23.93;;;20.60;53.40;;;;;;4982513;28;20446;-67
2024/03/04 01:30:36;;;;;;;24.07;23.07;;;20.60;53.40;;;;;;4980778;28;20563;-67
2024/03/04 01:33:06;;;;;;;23.87;22.87;;;20.60;53.40;;;;;;4980774;28;20515;-67
2024/03/04 01:35:33;;;;;;;24.37;23.27;;;20.60;53.40;;;;;;4983968;28;20498;-67
2024/03/04 01:38:00;;;;;;;24.80;23.67;;;20.60;53.40;;;;;;4983711;28;21042;-67
2024/03/04 01:40:28;;;;;;;24.17;23.17;;;20.60;53.40;;;;;;4980754;28;20499;-67
2024/03/04 01:42:55;;;;;;;24.97;23.90;;;20.60;54.00;;;;;;4980301;28;20933;-67
2024/03/04 01:45:27;;;;;;;24.03;23.03;;;20.60;53.40;;;;;;4980115;28;20471;-67
2024/03/04 01:47:57;;;;;;;23.77;22.77;;;20.60;53.50;;;;;;4980773;28;20535;-67
2024/03/04 01:50:27;;;;;;;24.10;23.10;;;20.60;53.50;;;;;;4972656;28;20483;-67
2024/03/04 01:52:55;;;;;;;24.57;23.37;;;20.50;53.40;;;;;;4980414;28;20552;-66
2024/03/04 01:55:24;;;;;;;24.10;23.10;;;20.50;53.40;;;;;;4983668;28;20451;-66
2024/03/04 01:57:52;;;;;;;23.90;22.90;;;20.50;53.50;;;;;;4983667;28;20451;-66
2024/03/04 02:00:20;;;;;;;24.53;23.33;;;20.50;53.50;;;;;;4980685;28;20450;-67
2024/03/04 02:02:47;;;;;;;24.80;23.80;;;20.50;53.50;;;;;;4980106;28;20440;-67
2024/03/04 02:05:16;;;;;;;24.03;23.03;;;20.50;53.50;;;;;;4981890;28;20464;-67
2024/03/04 02:07:43;;;;;;;24.30;23.30;;;20.50;53.50;;;;;;4983795;28;20450;-66
2024/03/04 02:10:11;;;;;;;24.77;23.77;;;20.50;53.50;;;;;;4981855;28;20888;-67
2024/03/04 02:12:38;;;;;;;24.30;23.30;;;20.50;53.70;;;;;;4980057;28;20507;-67
2024/03/04 02:15:06;;;;;;;23.23;22.33;;;20.60;53.50;;;;;;4980499;28;20822;-66
2024/03/04 02:17:34;;;;;;;24.03;22.90;;;20.50;53.50;;;;;;4983564;28;20941;-66
2024/03/04 02:20:04;;;;;;;23.53;22.57;;;20.50;53.50;;;;;;4986744;28;20438;-66
2024/03/04 02:22:32;;;;;;;23.57;22.67;;;20.50;53.50;;;;;;4983375;28;20452;-67
2024/03/04 02:24:59;;;;;;;23.57;22.57;;;20.40;53.50;;;;;;4980491;28;20475;-66
2024/03/04 02:27:26;;;;;;;24.10;23.10;;;20.50;53.60;;;;;;4975808;28;20440;-67
2024/03/04 02:29:53;;;;;;;24.20;23.20;;;20.40;53.50;;;;;;4983668;28;20838;-66
2024/03/04 02:32:20;;;;;;;23.57;22.67;;;20.40;53.60;;;;;;4985808;28;20493;-65
2024/03/04 02:34:49;;;;;;;23.67;22.67;;;20.50;53.70;;;;;;4986565;28;20463;-66
2024/03/04 02:37:15;;;;;;;24.20;23.00;;;20.50;53.70;;;;;;4984585;28;20447;-66
2024/03/04 02:39:44;;;;;;;24.90;23.80;;;20.40;53.60;;;;;;4983547;28;20447;-67
2024/03/04 02:42:11;;;;;;;23.90;22.90;;;20.40;53.60;;;;;;4984482;28;20813;-66
2024/03/04 02:44:37;;;;;;;23.83;22.83;;;20.40;53.60;;;;;;4986727;28;20463;-66
2024/03/04 02:47:04;;;;;;;24.20;22.97;;;20.40;53.70;;;;;;4985606;28;20459;-67
2024/03/04 02:49:34;;;;;;;23.83;22.83;;;20.40;53.60;;;;;;4983192;28;20479;-67
2024/03/04 02:52:01;;;;;;;23.37;22.47;;;20.40;53.60;;;;;;4982949;28;20942;-67
2024/03/04 02:54:28;;;;;;;23.30;22.40;;;20.40;54.20;;;;;;4986423;28;20466;-66
2024/03/04 02:56:56;;;;;;;23.60;22.70;;;20.40;53.70;;;;;;4985250;28;20443;-66
2024/03/04 02:59:24;;;;;;;23.97;22.97;;;20.40;53.70;;;;;;4986066;28;20443;-67
2024/03/04 03:01:50;;;;;;;23.70;22.80;;;20.40;53.70;;;;;;4986081;28;20485;-67
2024/03/04 03:04:18;;;;;;;24.00;23.00;;;20.40;53.70;;;;;;4983929;28;20458;-68
2024/03/04 03:06:44;;;;;;;24.00;23.00;;;20.40;53.70;;;;;;4981496;28;20447;-67
2024/03/04 03:09:12;;;;;;;23.33;22.37;;;20.40;53.70;;;;;;4984602;28;20498;-67
2024/03/04 03:11:39;;;;;;;23.70;22.80;;;20.40;53.70;;;;;;4982543;28;20452;-66
2024/03/04 03:14:07;;;;;;;23.93;22.93;;;20.30;53.70;;;;;;4982945;28;20483;-67
2024/03/04 03:16:34;;;;;;;23.47;22.47;;;20.30;53.70;;;;;;4985839;28;20518;-67
2024/03/04 03:19:00;;;;;;;24.40;23.20;;;20.40;53.70;;;;;;4986077;28;20443;-67
2024/03/04 03:21:28;;;;;;;23.37;22.33;;;20.30;53.70;;;;;;4985799;28;20478;-67
2024/03/04 03:23:55;;;;;;;23.33;22.33;;;20.30;53.70;;;;;;4985898;28;20462;-67
2024/03/04 03:26:22;;;;;;;23.80;22.80;;;20.30;53.70;;;;;;4983494;28;20451;-67
2024/03/04 03:28:49;;;;;;;23.93;22.83;;;20.30;53.70;;;;;;4980287;28;20959;-67
2024/03/04 03:31:19;;;;;;;23.40;22.40;;;20.30;53.70;;;;;;4982708;28;20489;-67
2024/03/04 03:33:46;;;;;;;23.40;22.50;;;20.30;53.70;;;;;;4982363;28;20934;-67
2024/03/04 03:36:12;;;;;;;23.57;22.43;;;20.30;53.70;;;;;;4983583;28;20455;-67
2024/03/04 03:38:39;;;;;;;23.20;22.20;;;20.30;53.70;;;;;;4985730;28;20444;-67
2024/03/04 03:41:07;;;;;;;23.03;22.13;;;20.30;53.70;;;;;;4984811;28;20443;-67
2024/03/04 03:43:34;;;;;;;23.00;22.10;;;20.30;53.70;;;;;;4981852;28;20443;-67
2024/03/04 03:46:01;;;;;;;23.83;22.83;;;20.30;53.70;;;;;;4982189;28;20490;-67
2024/03/04 03:48:29;;;;;;;23.70;22.70;;;20.30;53.70;;;;;;4985415;28;20443;-67
2024/03/04 03:50:56;;;;;;;22.87;21.97;;;20.30;53.70;;;;;;4980164;28;20479;-67
2024/03/04 03:53:25;;;;;;;23.10;22.20;;;20.30;53.70;;;;;;4984373;28;20448;-67
2024/03/04 03:55:52;;;;;;;23.77;22.77;;;20.30;53.70;;;;;;4977737;28;20519;-67
2024/03/04 03:58:18;;;;;;;24.30;23.30;;;20.20;53.60;;;;;;4983834;28;20448;-67
2024/03/04 04:00:45;;;;;;;25.10;24.00;;;20.20;53.60;;;;;;4986425;28;20463;-67
2024/03/04 04:03:12;;;;;;;24.70;23.70;;;20.20;53.70;;;;;;4968001;28;20941;-67
2024/03/04 04:05:40;;;;;;;24.60;23.60;;;20.20;53.70;;;;;;4985099;28;20471;-67
2024/03/04 04:08:07;;;;;;;25.00;23.90;;;20.20;53.70;;;;;;4984552;28;20451;-67
2024/03/04 04:10:34;;;;;;;24.77;23.77;;;20.20;53.70;;;;;;4981692;28;20484;-67
2024/03/04 04:13:01;;;;;;;25.10;24.00;;;20.20;53.70;;;;;;4981377;28;20885;-67
2024/03/04 04:15:28;;;;;;;27.13;26.03;;;20.20;53.70;;;;;;4984561;28;20466;-67
2024/03/04 04:17:55;;;;;;;25.30;24.20;;;20.20;53.80;;;;;;4984928;28;20439;-67
2024/03/04 04:20:21;;;;;;;25.50;24.43;;;20.20;53.70;;;;;;4982859;28;20529;-67
2024/03/04 04:22:50;;;;;;;24.80;23.80;;;20.20;53.80;;;;;;4981346;28;20436;-67
2024/03/04 04:25:17;;;;;;;24.60;23.60;;;20.20;53.80;;;;;;4982582;28;20471;-67
2024/03/04 04:27:45;;;;;;;25.60;24.50;;;20.20;53.70;;;;;;4984851;28;20992;-67
2024/03/04 04:30:12;;;;;;;25.00;23.90;;;20.20;53.70;;;;;;4983935;28;20490;-67
2024/03/04 04:32:39;;;;;;;24.00;23.00;;;20.20;54.30;;;;;;4981209;28;20948;-67
2024/03/04 04:35:06;;;;;;;24.87;23.80;;;20.20;53.70;;;;;;4981344;28;20475;-67
2024/03/04 04:37:33;;;;;;;24.00;23.00;;;20.20;53.70;;;;;;4979242;28;20443;-67
2024/03/04 04:40:01;;;;;;;23.50;22.50;;;20.20;53.70;;;;;;4984531;28;20447;-67
2024/03/04 04:42:28;;;;;;;23.73;22.73;;;20.10;53.70;;;;;;4981166;28;20440;-67
2024/03/04 04:44:54;;;;;;;23.60;22.60;;;20.10;53.70;;;;;;4981243;28;20464;-67
2024/03/04 04:47:23;;;;;;;24.07;23.00;;;20.10;53.70;;;;;;4983300;28;20451;-67
2024/03/04 04:49:50;;;;;;;24.07;23.07;;;20.10;53.70;;;;;;4985560;28;20468;-67
2024/03/04 04:52:16;;;;;;;23.90;22.80;;;20.10;53.70;;;;;;4982156;28;20934;-67
2024/03/04 04:54:44;;;;;;;24.60;23.50;;;20.10;53.70;;;;;;4984359;28;20467;-67
2024/03/04 04:57:12;;;;;;;23.47;22.57;;;20.10;53.70;;;;;;4983898;28;20454;-67
2024/03/04 04:59:39;;;;;;;23.60;22.70;;;20.10;53.70;;;;;;4981137;28;20456;-67
2024/03/04 05:02:05;;;;;;;24.50;23.50;;;20.10;53.80;;;;;;4980572;28;20471;-67
2024/03/04 05:04:32;;;;;;;24.90;23.90;;;20.10;53.80;;;;;;4981050;28;20467;-67
2024/03/04 05:07:00;;;;;;;25.20;24.20;;;20.10;54.00;;;;;;4981142;28;20451;-67
2024/03/04 05:09:27;;;;;;;25.00;24.00;;;20.10;54.00;;;;;;4983130;28;20450;-67
2024/03/04 05:11:54;;;;;;;24.53;23.53;;;20.10;54.00;;;;;;4983709;28;21113;-67
2024/03/04 05:14:22;;;;;;;25.23;24.23;;;20.10;54.10;;;;;;4982230;28;20502;-67
2024/03/04 05:16:49;;;;;;;25.00;24.00;;;20.10;54.10;;;;;;4980702;28;20454;-67
2024/03/04 05:19:16;;;;;;;24.60;23.60;;;20.10;54.10;;;;;;4979643;28;20451;-67
2024/03/04 05:21:43;;;;;;;26.53;24.13;;;20.10;54.30;;;;;;4983842;28;20439;-67
2024/03/04 05:24:10;;;;;;;25.27;24.27;;;20.10;54.30;;;;;;4983763;28;20471;-67
2024/03/04 05:26:37;;;;;;;25.10;24.10;;;20.10;54.40;;;;;;4980877;28;20451;-66
2024/03/04 05:29:05;;;;;;;29.50;28.40;;;20.10;54.50;;;;;;4980379;28;20882;-66
2024/03/04 05:31:33;;;;;;;29.07;27.97;;;20.10;54.60;;;;;;4983207;28;20479;-67
2024/03/04 05:34:00;;;;;;;29.60;28.40;;;20.10;54.60;;;;;;4983972;28;20466;-67
2024/03/04 05:36:27;;;;;;;28.43;27.23;;;20.10;54.60;;;;;;4981506;28;20443;-67
2024/03/04 05:38:53;;;;;;;27.90;26.83;;;20.10;54.70;;;;;;4980717;28;20479;-68
2024/03/04 05:41:20;;;;;;;27.77;26.67;;;20.10;54.80;;;;;;4981352;28;20451;-67
2024/03/04 05:43:47;;;;;;;27.47;26.37;;;20.10;54.90;;;;;;4984136;28;20478;-67
2024/03/04 05:46:13;;;;;;;27.27;26.17;;;20.10;54.90;;;;;;4983152;28;20959;-67
2024/03/04 05:48:41;;;;;;;28.40;27.30;;;20.10;54.90;;;;;;4980379;28;20488;-67
2024/03/04 05:51:08;;;;;;;28.47;27.20;;;20.10;54.90;;;;;;4980007;28;21001;-67
2024/03/04 05:53:35;;;;;;;28.20;27.07;;;20.00;54.90;;;;;;4973659;28;20447;-67
2024/03/04 05:56:04;;;;;;;28.03;26.93;;;20.10;55.10;;;;;;4984094;28;20452;-68
2024/03/04 05:58:31;;;;;;;29.83;28.23;;;20.10;56.50;;;;;;4986920;28;20439;-67
2024/03/04 06:00:57;;;;;;;28.50;26.20;;;20.10;56.80;;;;;;4987363;28;20457;-66
2024/03/04 06:03:24;;;;;;;28.93;27.10;;;20.10;57.20;;;;;;4984502;28;20449;-67
2024/03/04 06:05:52;;;;;;;28.83;26.33;;;20.10;59.80;;;;;;4984025;28;20992;-66
2024/03/04 06:08:19;;;;;;;30.07;27.63;;;20.10;63.40;;;;;;4985272;28;21027;-66
2024/03/04 06:10:46;;;;;;;28.47;25.57;;;20.10;65.50;;;;;;4987505;28;20489;-65
2024/03/04 06:13:12;;;;;;;28.67;26.40;;;20.10;67.10;;;;;;4984232;28;20452;-65
2024/03/04 06:15:39;;;;;;;29.47;26.47;;;20.10;67.30;;;;;;4987052;28;20474;-65
2024/03/04 06:18:06;;;;;;;26.60;24.93;;;20.10;67.20;;;;;;4987213;28;20443;-65
2024/03/04 06:20:33;;;;;;;27.27;25.20;;;20.10;66.60;;;;;;4983763;28;20454;-65
2024/03/04 06:23:01;;;;;;;27.40;25.60;;;20.10;66.00;;;;;;4983290;28;20447;-65
2024/03/04 06:25:28;;;;;;;29.07;27.07;;;20.10;65.40;;;;;;4985977;28;20475;-65
2024/03/04 06:27:55;;;;;;;28.50;26.80;;;20.10;64.90;;;;;;4986716;28;20461;-65
2024/03/04 06:30:21;;;;;;;27.30;25.80;;;20.10;64.30;;;;;;4985250;28;20489;-65
2024/03/04 06:32:48;;;;;;;29.97;27.23;;;20.10;63.80;;;;;;4983255;28;20448;-65
2024/03/04 06:35:15;;;;;;;27.87;26.20;;;20.10;63.30;;;;;;4983553;28;20972;-65
2024/03/04 06:37:42;;;;;;;27.43;26.00;;;20.10;62.80;;;;;;4986633;28;20447;-65
2024/03/04 06:40:11;;;;;;;28.77;26.50;;;20.10;62.40;;;;;;4986545;28;20473;-65
2024/03/04 06:42:38;;;;;;;26.57;25.17;;;20.10;61.90;;;;;;4975178;28;20444;-65
2024/03/04 06:45:05;;;;;;;27.30;25.63;;;20.10;61.40;;;;;;4983336;28;20467;-65
2024/03/04 06:47:33;;;;;;;27.90;26.20;;;20.10;60.90;;;;;;4985931;28;20482;-65
2024/03/04 06:49:59;;;;;;;26.80;25.43;;;20.10;60.60;;;;;;4986452;28;20446;-65
2024/03/04 06:52:26;;;;;;;28.63;26.87;;;20.00;60.10;;;;;;4984201;28;20447;-65
2024/03/04 06:54:53;;;;;;;27.57;25.63;;;20.10;59.90;;;;;;4982985;28;20463;-65
2024/03/04 06:57:21;;;;;;;27.67;26.10;;;20.00;59.60;;;;;;4984132;28;20447;-65
2024/03/04 06:59:48;;;;;;;27.33;26.03;;;20.00;59.50;;;;;;4986348;28;20443;-65
2024/03/04 07:02:14;;;;;;;26.83;25.40;;;20.00;59.30;;;;;;4985609;28;20439;-65
2024/03/04 07:04:41;;;;;;;27.57;26.03;;;20.00;59.10;;;;;;4981652;28;20981;-65
2024/03/04 07:07:08;;;;;;;28.70;26.93;;;20.00;58.90;;;;;;4982846;28;20826;-65
2024/03/04 07:09:34;;;;;;;29.60;27.50;;;20.00;58.70;;;;;;4985594;28;20443;-65
2024/03/04 07:12:01;;;;;;;28.93;27.43;;;20.00;58.50;;;;;;4985855;28;20490;-65
2024/03/04 07:14:29;;;;;;;28.43;26.87;;;20.00;58.40;;;;;;4984502;28;20471;-66
2024/03/04 07:16:56;;;;;;;29.23;27.40;;;20.00;58.30;;;;;;4983999;28;20531;-66
2024/03/04 07:19:23;;;;;;;28.77;27.43;;;20.00;58.10;;;;;;4984973;28;20448;-67
2024/03/04 07:21:50;;;;;;;27.93;26.63;;;20.00;58.00;;;;;;4987098;28;20497;-65
2024/03/04 07:24:17;;;;;;;27.93;26.73;;;20.00;57.90;;;;;;4986395;28;20463;-67
2024/03/04 07:26:44;;;;;;;30.27;28.70;;;20.00;57.80;;;;;;4984312;28;20506;-66
2024/03/04 07:29:11;;;;;;;29.67;28.37;;;20.00;58.20;;;;;;4984377;28;20511;-65
2024/03/04 07:31:39;;;;;;;30.27;28.70;;;20.00;57.50;;;;;;4986691;28;20479;-66
2024/03/04 07:34:05;;;;;;;28.67;27.27;;;20.00;57.40;;;;;;4986902;28;20778;-67
2024/03/04 07:36:32;;;;;;;29.87;28.27;;;19.90;57.30;;;;;;4984744;28;20447;-66
2024/03/04 07:38:59;;;;;;;28.60;27.33;;;20.00;57.20;;;;;;4983625;28;20456;-66
2024/03/04 07:41:26;;;;;;;30.20;28.70;;;19.90;57.10;;;;;;4984447;28;20480;-66
2024/03/04 07:43:53;;;;;;;28.30;27.00;;;19.90;57.50;;;;;;4986541;28;20449;-67
2024/03/04 07:46:19;;;;;;;28.30;26.73;;;19.90;56.90;;;;;;4985657;28;20443;-66
2024/03/04 07:48:47;;;;;;;27.13;25.93;;;19.90;56.80;;;;;;4982783;28;20528;-66
2024/03/04 07:51:14;;;;;;;28.10;26.60;;;19.90;56.80;;;;;;4982233;28;20504;-66
2024/03/04 07:53:41;;;;;;;28.70;27.40;;;19.90;56.70;;;;;;4975297;28;20440;-66
2024/03/04 07:56:08;;;;;;;27.40;26.10;;;19.90;56.60;;;;;;4983424;28;20441;-66
2024/03/04 07:58:36;;;;;;;26.83;25.73;;;19.90;56.60;;;;;;4985931;28;20452;-66
2024/03/04 08:01:03;;;;;;;27.43;26.23;;;19.90;56.50;;;;;;4986360;28;21001;-66
2024/03/04 08:03:29;;;;;;;28.97;27.50;;;19.90;56.40;;;;;;4984743;28;20451;-66
2024/03/04 08:05:57;;;;;;;28.20;26.90;;;19.90;56.30;;;;;;4983396;28;20478;-66
2024/03/04 08:08:24;;;;;;;28.23;27.03;;;19.90;56.30;;;;;;4983604;28;20714;-67
2024/03/04 08:10:51;;;;;;;28.00;26.70;;;19.90;56.20;;;;;;4985831;28;20483;-66
2024/03/04 08:13:17;;;;;;;28.07;26.83;;;19.90;56.10;;;;;;4985530;28;20447;-66
2024/03/04 08:15:44;;;;;;;27.47;26.37;;;19.80;56.00;;;;;;4982834;28;20470;-65
2024/03/04 08:18:11;;;;;;;27.03;25.73;;;19.80;56.00;;;;;;4983601;28;20818;-66
2024/03/04 08:20:37;;;;;;;27.83;26.33;;;19.80;55.90;;;;;;4985447;28;20446;-66
2024/03/04 08:23:06;;;;;;;28.57;27.10;;;19.90;55.90;;;;;;4985749;28;20447;-65
2024/03/04 08:25:32;;;;;;;28.30;27.00;;;19.80;55.80;;;;;;4982474;28;20900;-66
2024/03/04 08:28:00;;;;;;;27.70;26.50;;;19.80;55.70;;;;;;4981561;28;20443;-66
2024/03/04 08:30:26;;;;;;;28.00;26.80;;;19.90;55.80;;;;;;4982579;28;20604;-65
2024/03/04 08:32:53;;;;;;;27.87;26.67;;;19.80;55.60;;;;;;4984259;28;20486;-65
2024/03/04 08:35:20;;;;;;;29.93;28.53;;;19.80;55.60;;;;;;4984057;28;20499;-65
2024/03/04 08:37:47;;;;;;;31.60;30.30;;;19.80;55.60;;;;;;4981191;28;20813;-65
2024/03/04 08:40:15;;;;;;;31.80;30.40;;;19.80;55.50;;;;;;4981323;28;20447;-65
2024/03/04 08:42:41;;;;;;;30.70;29.50;;;19.80;55.50;;;;;;4983942;28;20435;-65
2024/03/04 08:45:09;;;;;;;29.80;28.57;;;19.80;55.40;;;;;;4984490;28;20905;-65
2024/03/04 08:47:36;;;;;;;29.23;27.90;;;19.80;55.40;;;;;;4981896;28;20447;-65
2024/03/04 08:50:03;;;;;;;28.87;27.67;;;19.80;55.40;;;;;;4980982;28;20446;-65
2024/03/04 08:52:30;;;;;;;28.73;27.53;;;19.80;55.30;;;;;;4982020;28;20507;-65
2024/03/04 08:54:57;;;;;;;28.27;27.07;;;19.80;55.30;;;;;;4984351;28;20834;-65
2024/03/04 08:57:25;;;;;;;27.50;26.30;;;19.80;55.30;;;;;;4983555;28;20451;-66
2024/03/04 08:59:51;;;;;;;28.10;26.90;;;19.80;55.30;;;;;;4980808;28;20447;-65
2024/03/04 09:02:18;;;;;;;26.50;25.20;;;19.80;55.20;;;;;;4980496;28;20478;-65
2024/03/04 09:04:47;;;;;;;26.93;25.80;;;19.70;55.10;;;;;;4973055;28;20460;-65
2024/03/04 09:07:14;;;;;;;27.33;26.23;;;19.80;55.20;;;;;;4980864;28;20506;-65
2024/03/04 09:09:41;;;;;;;27.93;26.83;;;19.80;55.10;;;;;;4983843;28;20443;-65
2024/03/04 09:12:09;;;;;;;28.20;27.03;;;19.70;55.00;;;;;;4983734;28;20479;-66
2024/03/04 09:14:37;;;;;;;27.33;26.23;;;19.70;55.00;;;;;;4981707;28;21340;-65
2024/03/04 09:17:04;;;;;;;26.97;25.87;;;19.70;55.00;;;;;;4980872;28;20483;-65
2024/03/04 09:19:30;;;;;;;27.80;26.60;;;19.70;55.00;;;;;;4982144;28;20440;-65
2024/03/04 09:21:57;;;;;;;27.07;25.87;;;19.70;55.00;;;;;;4984400;28;20435;-66
2024/03/04 09:24:24;;;;;;;27.07;25.97;;;19.70;55.00;;;;;;4983998;28;20469;-66
2024/03/04 09:26:50;;;;;;;27.33;26.13;;;19.70;54.90;;;;;;4981469;28;20439;-66
2024/03/04 09:29:17;;;;;;;27.40;26.27;;;19.70;54.90;;;;;;4984319;28;20447;-66
2024/03/04 09:31:45;;;;;;;27.10;26.00;;;19.70;54.90;;;;;;4988300;28;20478;-66
2024/03/04 09:34:12;;;;;;;26.90;25.80;;;19.70;54.90;;;;;;4988911;28;20473;-65
2024/03/04 09:36:39;;;;;;;27.10;26.00;;;19.70;54.80;;;;;;4986442;28;21007;-66
2024/03/04 09:39:05;;;;;;;26.73;25.53;;;19.70;54.80;;;;;;4985507;28;20451;-66
2024/03/04 09:41:36;;;;;;;26.77;25.67;;;19.70;54.80;;;;;;4986769;28;20444;-65
2024/03/04 09:44:03;;;;;;;27.83;26.63;;;19.70;54.80;;;;;;4988803;28;20995;-66
2024/03/04 09:46:31;;;;;;;27.30;26.10;;;19.70;54.70;;;;;;4980407;28;20447;-66
2024/03/04 09:49:01;;;;;;;28.70;27.30;;;19.70;54.70;;;;;;4988378;28;20451;-65
2024/03/04 09:51:30;;;;;;;28.00;26.90;;;19.70;54.70;;;;;;4987010;28;20489;-66
2024/03/04 09:53:58;;;;;;;26.77;25.67;;;19.70;54.60;;;;;;4985529;28;21003;-66
2024/03/04 09:56:26;;;;;;;28.80;27.63;;;19.60;54.60;;;;;;4985402;28;20467;-66
2024/03/04 09:58:54;;;;;;;27.37;26.27;;;19.70;54.70;;;;;;4988182;28;20451;-66
2024/03/04 10:01:21;;;;;;;28.20;27.00;;;19.60;54.60;;;;;;4988032;28;20543;-66
2024/03/04 10:03:48;;;;;;;26.97;25.87;;;19.60;54.50;;;;;;4977018;28;20970;-66
2024/03/04 10:06:17;;;;;;;26.57;25.50;;;19.60;54.50;;;;;;4984427;28;20455;-66
2024/03/04 10:08:44;;;;;;;27.37;26.27;;;19.60;54.50;;;;;;4986613;28;20442;-66
2024/03/04 10:11:10;;;;;;;27.83;26.73;;;19.60;54.50;;;;;;4987502;28;20447;-66
2024/03/04 10:13:37;;;;;;;27.63;26.53;;;19.60;54.50;;;;;;4984861;28;20450;-66
2024/03/04 10:16:09;;;;;;;27.30;26.20;;;19.60;54.50;;;;;;4984077;28;20448;-66
2024/03/04 10:18:35;;;;;;;27.53;26.43;;;19.60;54.50;;;;;;4985968;28;20929;-66
2024/03/04 10:21:03;;;;;;;28.60;27.40;;;19.60;54.40;;;;;;4987708;28;20447;-66
2024/03/04 10:23:31;;;;;;;28.50;27.40;;;19.60;54.50;;;;;;4986250;28;20443;-65
2024/03/04 10:26:07;;;;;;;27.97;26.87;;;19.60;54.50;;;;;;4984724;28;20468;-66
2024/03/04 10:28:39;;;;;;;26.80;25.70;;;19.60;54.50;;;;;;4985856;28;20864;-66
2024/03/04 10:31:10;;;;;;;27.93;26.67;;;19.60;54.40;;;;;;4989889;28;20452;-66
2024/03/04 10:33:37;;;;;;;28.57;27.47;;;19.60;54.50;;;;;;4985547;28;20451;-66
2024/03/04 10:36:13;;;;;;;27.60;26.50;;;19.60;54.40;;;;;;4987405;28;20459;-66
2024/03/04 10:38:44;;;;;;;28.00;26.90;;;19.60;54.40;;;;;;4984958;28;20501;-66
2024/03/04 10:41:16;;;;;;;29.50;28.30;;;19.60;54.30;;;;;;4984105;28;20444;-66
2024/03/04 10:43:43;;;;;;;28.10;26.80;;;19.60;54.30;;;;;;4986462;28;20451;-66
2024/03/04 10:46:10;;;;;;;28.37;27.17;;;19.60;54.30;;;;;;4987573;28;20890;-66
2024/03/04 10:48:38;;;;;;;28.67;27.47;;;19.50;54.30;;;;;;4985625;28;20439;-66
2024/03/04 10:51:06;;;;;;;29.87;28.67;;;19.60;54.30;;;;;;4984262;28;20440;-66
2024/03/04 10:53:33;;;;;;;29.23;28.13;;;19.60;54.30;;;;;;4985202;28;20512;-66
2024/03/04 10:56:06;;;;;;;29.40;28.20;;;19.50;54.20;;;;;;4988137;28;20509;-66
2024/03/04 10:58:33;;;;;;;28.67;27.47;;;19.50;54.20;;;;;;4986731;28;20828;-66
2024/03/04 11:01:04;;;;;;;28.53;27.33;;;19.50;54.20;;;;;;4985468;28;20443;-66
2024/03/04 11:03:31;;;;;;;30.30;29.10;;;19.50;54.10;;;;;;4986630;28;20443;-66
2024/03/04 11:06:00;;;;;;;28.97;27.87;;;19.60;54.20;;;;;;4988808;28;20471;-66
2024/03/04 11:08:32;;;;;;;28.87;27.77;;;19.50;54.10;;;;;;4987152;28;20502;-66
2024/03/04 11:11:08;;;;;;;28.60;27.40;;;19.50;54.10;;;;;;4983886;28;20455;-66
2024/03/04 11:13:41;;;;;;;29.93;28.63;;;19.60;54.20;;;;;;4984874;28;20479;-66
2024/03/04 11:16:16;;;;;;;30.00;28.80;;;19.50;54.10;;;;;;4987411;28;20450;-66
2024/03/04 11:18:53;;;;;;;30.73;29.53;;;19.60;54.20;;;;;;4985069;28;20457;-65
2024/03/04 11:21:21;;;;;;;27.53;26.43;;;19.50;54.10;;;;;;4983826;28;20447;-66
2024/03/04 11:23:50;;;;;;;27.80;26.70;;;19.50;54.10;;;;;;4986863;28;20448;-66
2024/03/04 11:26:21;;;;;;;27.07;25.97;;;19.50;54.10;;;;;;4987338;28;20443;-65
2024/03/04 11:28:49;;;;;;;29.13;27.93;;;19.50;54.10;;;;;;4983701;28;21025;-66
2024/03/04 11:31:24;;;;;;;28.40;27.20;;;19.50;54.10;;;;;;4983046;28;20921;-66
2024/03/04 11:34:00;;;;;;;27.17;26.07;;;19.50;54.10;;;;;;4983128;28;20487;-66
2024/03/04 11:36:28;;;;;;;27.53;26.43;;;19.50;54.00;;;;;;4983416;28;20443;-66
2024/03/04 11:38:56;;;;;;;27.93;26.83;;;19.50;54.10;;;;;;4986599;28;20821;-66
2024/03/04 11:41:44;;;;;;;28.47;27.37;;;19.50;54.10;;;;;;4986710;28;20801;-65
2024/03/04 11:44:11;;;;;;;29.63;28.43;;;19.50;54.10;;;;;;4977972;28;20860;-65
2024/03/04 11:46:39;;;;;;;28.83;27.70;;;19.50;54.10;;;;;;4985147;28;20514;-65
2024/03/04 11:49:26;;;;;;;28.10;26.97;;;19.50;54.10;;;;;;4989477;28;20448;-66
2024/03/04 11:52:00;;;;;;;27.90;26.80;;;19.50;54.10;;;;;;4982225;28;20942;-66
2024/03/04 11:54:43;;;;;;;29.77;28.57;;;19.50;54.10;;;;;;4983494;28;20475;-65
2024/03/04 11:57:11;;;;;;;27.30;26.10;;;19.50;54.00;;;;;;4985568;28;20936;-65
2024/03/04 11:59:39;;;;;;;28.10;27.00;;;19.50;54.10;;;;;;4983877;28;20534;-65
2024/03/04 12:02:10;;;;;;;27.93;26.73;;;19.50;54.00;;;;;;4981561;28;20444;-65
2024/03/04 12:04:38;;;;;;;27.10;26.00;;;19.40;54.00;;;;;;4982933;28;20540;-65
2024/03/04 12:07:05;;;;;;;27.20;26.10;;;19.40;54.00;;;;;;4985255;28;20450;-65
2024/03/04 12:09:34;;;;;;;27.57;26.37;;;19.50;54.00;;;;;;4984280;28;20542;-65
2024/03/04 12:12:03;;;;;;;27.03;25.90;;;19.50;54.10;;;;;;4981193;28;20939;-65
2024/03/04 12:14:31;;;;;;;26.50;25.37;;;19.50;54.00;;;;;;4981432;28;20476;-65
2024/03/04 12:16:57;;;;;;;28.23;27.13;;;19.50;54.00;;;;;;4984765;28;20442;-65
2024/03/04 12:19:24;;;;;;;28.80;27.70;;;19.40;54.00;;;;;;4984874;28;20450;-65
2024/03/04 12:21:51;;;;;;;27.10;26.00;;;19.50;54.00;;;;;;4981102;28;20470;-65
2024/03/04 12:24:19;;;;;;;27.90;26.80;;;19.50;54.00;;;;;;4981306;28;20840;-65
2024/03/04 12:26:49;;;;;;;26.40;25.30;;;19.40;53.90;;;;;;4983718;28;20534;-65
2024/03/04 12:29:21;;;;;;;26.30;25.30;;;19.40;53.90;;;;;;4984623;28;20478;-65
2024/03/04 12:31:53;;;;;;;28.80;27.70;;;19.40;53.90;;;;;;4981418;28;20443;-65